x

San Juan, Pr (41053) Wave Buoy

4:00am - Thu 31st Jul 2014 All times are AST. -4 hours from GMT.

  • Sig Wave height 2.3ft
  • Peak Period 7s
  • Wind
    4mph
  • Sea Temp 82°f
  • Air Temp 80°f
  • Sea Pressure 1014.6mb
  • San Juan, Pr
  • San Juan, Pr

More Historic Weather Station data

Upgrade to MSW Pro to gain access to the past 30 days of data for over 8000 Wavebouys and Weather Stations around the globe.

Join Pro

Comparision Forecast

View Surf forecast
   
Thu 07/31 4:00am 2.5ft 7s 4
mph
1014.6mb 82f 80f
3:00am 2.5ft 6s 2 4 mph 1014.8mb 82f 81f
2:00am 2.5ft 6s 4 7 mph 1015mb 82f 81f
1:00am 2.5ft 5s 7
mph
1015.7mb 82f 82f
12:00am 2.5ft 5s 7 9 mph 1016mb 82f 82f
Wed 07/30 11:00pm 2.5ft 6s 7 9 mph 1016.3mb 82f 82f
10:00pm 2.5ft 6s 7 9 mph 1016.4mb 82f 83f
9:00pm 2.5ft 6s 7 9 mph 1015.8mb 82f 83f
8:00pm 2.5ft 6s 11 13 mph 1015.3mb 82f 83f
7:00pm 2.5ft 4s 16 18 mph 1014.7mb 83f 83f
5:00pm 2.5ft 4s 18 20 mph 1014.5mb 83f 83f
4:00pm 3ft 4s 18 20 mph 1014.4mb 83f 83f
3:00pm 3ft 4s 18 22 mph 1014.4mb 83f 83f
2:00pm 3ft 4s 18 22 mph 1015mb 82f 83f
1:00pm 3ft 4s 20 25 mph 1015.5mb 82f 83f
12:00pm 2.5ft 4s 18 20 mph 1015.9mb 82f 83f
11:00am 2.5ft 4s 16 20 mph 1016.5mb 82f 83f
10:00am 2ft 5s 13 18 mph 1016.8mb 82f 83f
9:00am 2ft 6s 11 13 mph 1016.5mb 82f 82f
8:00am 2ft 5s 9 11 mph 1016.3mb 82f 82f
7:00am 1.6ft 7s 9 11 mph 1016.2mb 82f 82f
6:00am 1.6ft 7s 7 9 mph 1015.8mb 82f 81f
5:00am 2ft 7s 7 9 mph 1015.8mb 82f 81f
4:00am 2ft 8s 4 7 mph 1015.9mb 82f 81f
3:00am 2.5ft 5s 7 9 mph 1016.1mb 82f 82f
2:00am 2ft 5s 7
mph
1016.3mb 82f 82f
1:00am 2ft 4s 4 7 mph 1016.5mb 82f 82f
12:00am 2.5ft 5s 4 7 mph 1017.3mb 82f 82f
Tue 07/29 11:00pm 2.5ft 5s 7 9 mph 1017.6mb 82f 83f
10:00pm 2.5ft 7s 7 9 mph 1017.3mb 82f 82f
9:00pm 2.5ft 5s 9 11 mph 1016.8mb 82f 82f
8:00pm 2.5ft 5s 11 13 mph 1015.9mb 82f 82f
7:00pm 2.5ft 5s 13 16 mph 1015.4mb 82f 83f
6:00pm 2.5ft 8s 13 16 mph 1014.9mb 82f 83f
5:00pm 2.5ft 5s 16 20 mph 1014.9mb 82f 83f
4:00pm 2.5ft 4s 16 18 mph 1014.6mb 82f 83f
3:00pm 2.5ft 5s 18 20 mph 1014.8mb 82f 83f
2:00pm 3ft 5s 16 20 mph 1015mb 82f 82f
1:00pm 3ft 5s 18 22 mph 1016.1mb 82f 82f
12:00pm 3ft 5s 20 25 mph 1016.4mb 82f 81f
11:00am 2.5ft 8s 16 20 mph 1016.4mb 82f 83f
10:00am 2.5ft 8s 11 16 mph 1016.7mb 82f 83f
9:00am 2.5ft 8s 9 11 mph 1016.7mb 82f 83f
8:00am 2.5ft 7s 7 9 mph 1016.5mb 82f 83f
7:00am 2.5ft 9s 7 9 mph 1016.3mb 82f 82f
6:00am 2.5ft 8s 11 13 mph 1015.8mb 82f 81f
5:00am 2.5ft 8s 7 9 mph 1015.5mb 82f 81f
4:00am 2ft 8s 4 7 mph 1015.5mb 82f 81f
3:00am 2.5ft 8s 4 7 mph 1015.4mb 82f 81f
2:00am 2.5ft 8s 7 9 mph 1015.7mb 82f 82f
1:00am 2.5ft 9s 11 13 mph 1016.5mb 82f 82f
12:00am 2ft 7s 9 13 mph 1017.1mb 82f 82f
Mon 07/28 11:00pm 2.5ft 8s 13 16 mph 1017.5mb 82f 83f
10:00pm 2ft 5s 13 16 mph 1017.4mb 82f 83f
9:00pm 2.5ft 8s 11 16 mph 1017.3mb 82f 83f
8:00pm 2.5ft 8s 13 18 mph 1016.8mb 82f 83f
7:00pm 2.5ft 8s 16 20 mph 1016mb 82f 83f
6:00pm 2.5ft 8s 18 20 mph 1015.8mb 83f 83f
5:00pm 2.5ft 8s 16 18 mph 1015.9mb 83f 83f
4:00pm 2.5ft 9s 16 20 mph 1016.1mb 82f 83f
3:00pm 3ft 8s 16 20 mph 1016.3mb 82f 83f
2:00pm 3ft 6s 16 18 mph 1016.7mb 82f 83f
1:00pm 2.5ft 6s 16 20 mph 1017.4mb 82f 83f
12:00pm 3ft 8s 13 16 mph 1017.7mb 82f 83f
11:00am 3ft 6s 13 16 mph 1018mb 82f 83f
10:00am 3ft 7s 11 13 mph 1018.2mb 82f 83f
9:00am 3ft 7s 11 13 mph 1018.3mb 82f 83f
8:00am 3ft 5s 9 11 mph 1018.2mb 82f 82f
7:00am 3ft 9s 7 9 mph 1017.9mb 82f 82f
6:00am 2.5ft 8s 7 9 mph 1017.5mb 81f 82f
5:00am 2.5ft 9s 7 9 mph 1017.2mb 81f 82f
Sun 07/27 11:00pm 3ft 8s 13 16 mph 1019.1mb 81f 83f
10:00pm 3ft 8s 13 16 mph 1019.1mb 82f 83f
9:00pm 3.5ft 8s 13 18 mph 1018.8mb 82f 83f
8:00pm 3ft 8s 16 18 mph 1018.5mb 82f 83f
7:00pm 3ft 8s 16 18 mph 1018.2mb 82f 83f
6:00pm 3ft 8s 16 20 mph 1017.3mb 83f 83f
5:00pm 3.5ft 8s 18 22 mph 1016.5mb 83f 83f
4:00pm 3ft 9s 18 22 mph 1016.3mb 83f 83f
3:00pm 3.5ft 8s 18 22 mph 1016.4mb 82f 83f
2:00pm 3ft 5s 16 20 mph 1017mb 82f 83f
1:00pm 3.5ft 8s 18 20 mph 1017.3mb 82f 83f
12:00pm 3ft 6s 16 20 mph 1017.9mb 82f 83f
11:00am 3.5ft 6s 16 18 mph 1018.1mb 81f 83f
10:00am 3.5ft 8s 13 16 mph 1018.3mb 81f 83f